createdAt,value
2023-03-06T00:00:49.002Z,513.00
2023-03-06T00:01:47.997Z,518.00
2023-03-06T00:02:48.991Z,519.00
2023-03-06T00:03:49.089Z,510.00
2023-03-06T00:04:49.035Z,520.00
2023-03-06T00:05:49.073Z,520.00
2023-03-06T00:06:48.049Z,518.00
2023-03-06T00:07:49.063Z,516.00
2023-03-06T00:08:49.061Z,520.00
2023-03-06T00:09:49.052Z,520.00
2023-03-06T00:10:49.043Z,519.00
2023-03-06T00:11:49.056Z,518.00
2023-03-06T00:12:48.124Z,517.00
2023-03-06T00:13:49.102Z,517.00
2023-03-06T00:14:49.073Z,519.00
2023-03-06T00:15:49.176Z,519.00
2023-03-06T00:16:48.080Z,518.00
2023-03-06T00:17:49.119Z,519.00
2023-03-06T00:18:49.126Z,522.00
2023-03-06T00:19:48.155Z,519.00
2023-03-06T00:20:48.166Z,522.00
2023-03-06T00:21:48.207Z,521.00
2023-03-06T00:22:49.258Z,510.00
2023-03-06T00:23:49.486Z,518.00
2023-03-06T00:24:48.354Z,510.00
2023-03-06T00:25:49.426Z,518.00
2023-03-06T00:26:49.477Z,513.00
2023-03-06T00:27:49.529Z,518.00
2023-03-06T00:28:49.628Z,508.00
2023-03-06T00:29:48.659Z,517.00
2023-03-06T00:30:49.722Z,507.00
2023-03-06T00:31:49.952Z,508.00
2023-03-06T00:32:49.845Z,523.00
2023-03-06T00:33:49.905Z,514.00
2023-03-06T00:34:49.937Z,513.00
2023-03-06T00:35:49.075Z,520.00
2023-03-06T00:36:50.042Z,508.00
2023-03-06T00:37:50.081Z,521.00
2023-03-06T00:38:50.140Z,521.00
2023-03-06T00:39:49.171Z,503.00
2023-03-06T00:40:49.211Z,511.00
2023-03-06T00:41:49.253Z,520.00
2023-03-06T00:42:50.300Z,516.00
2023-03-06T00:43:50.357Z,525.00
2023-03-06T00:44:50.391Z,503.00
2023-03-06T00:45:50.488Z,514.00
2023-03-06T00:46:49.458Z,527.00
2023-03-06T00:47:50.494Z,506.00
2023-03-06T00:48:50.554Z,510.00
2023-03-06T00:49:49.567Z,511.00
2023-03-06T00:50:49.622Z,515.00
2023-03-06T00:51:49.656Z,512.00
2023-03-06T00:52:49.665Z,513.00
2023-03-06T00:53:50.717Z,510.00
2023-03-06T00:54:50.740Z,521.00
2023-03-06T00:55:50.765Z,511.00
2023-03-06T00:56:50.804Z,511.00
2023-03-06T00:57:50.817Z,512.00
2023-03-06T00:58:50.866Z,518.00
2023-03-06T00:59:50.884Z,516.00
2023-03-06T01:00:50.917Z,514.00
2023-03-06T01:01:50.953Z,515.00
2023-03-06T01:02:50.957Z,510.00
2023-03-06T01:03:51.015Z,512.00
2023-03-06T01:04:51.004Z,509.00
2023-03-06T01:05:51.061Z,519.00
2023-03-06T01:06:50.057Z,512.00
2023-03-06T01:07:51.096Z,509.00
2023-03-06T01:08:51.124Z,526.00
2023-03-06T01:09:51.129Z,520.00
2023-03-06T01:10:51.186Z,512.00
2023-03-06T01:11:50.176Z,512.00
2023-03-06T01:12:51.212Z,515.00
2023-03-06T01:13:51.234Z,511.00
2023-03-06T01:14:50.255Z,511.00
2023-03-06T01:15:51.258Z,514.00
2023-03-06T01:16:51.315Z,514.00
2023-03-06T01:17:51.293Z,513.00
2023-03-06T01:18:51.347Z,510.00
2023-03-06T01:19:51.334Z,515.00
2023-03-06T01:20:51.376Z,512.00
2023-03-06T01:21:51.380Z,520.00
2023-03-06T01:22:51.434Z,515.00
2023-03-06T01:23:51.466Z,518.00
2023-03-06T01:24:50.428Z,516.00
2023-03-06T01:25:51.464Z,517.00
2023-03-06T01:26:50.485Z,517.00
2023-03-06T01:27:50.486Z,511.00
2023-03-06T01:28:51.556Z,514.00
2023-03-06T01:29:51.522Z,516.00
2023-03-06T01:30:51.540Z,519.00
2023-03-06T01:31:51.561Z,517.00
2023-03-06T01:32:51.566Z,513.00
2023-03-06T01:33:51.608Z,515.00
2023-03-06T01:34:51.610Z,517.00
2023-03-06T01:35:51.671Z,517.00
2023-03-06T01:36:51.674Z,514.00
2023-03-06T01:37:51.653Z,513.00
2023-03-06T01:38:51.681Z,518.00
2023-03-06T01:39:51.707Z,516.00
2023-03-06T01:40:51.710Z,516.00
2023-03-06T01:41:51.719Z,517.00
2023-03-06T01:42:51.724Z,519.00
2023-03-06T01:43:51.752Z,518.00
2023-03-06T01:44:51.735Z,515.00
2023-03-06T01:45:51.829Z,513.00
2023-03-06T01:46:50.758Z,516.00
2023-03-06T01:47:51.768Z,513.00
2023-03-06T01:48:51.785Z,514.00
2023-03-06T01:49:51.783Z,518.00
2023-03-06T01:50:51.782Z,514.00
2023-03-06T01:51:51.802Z,513.00
2023-03-06T01:52:51.799Z,516.00
2023-03-06T01:53:51.821Z,514.00
2023-03-06T01:54:51.825Z,518.00
2023-03-06T01:55:50.837Z,519.00
2023-03-06T01:56:51.819Z,515.00
2023-03-06T01:57:51.834Z,517.00
2023-03-06T01:58:51.842Z,514.00
2023-03-06T01:59:51.849Z,516.00
2023-03-06T02:00:51.917Z,521.00
2023-03-06T02:01:51.852Z,511.00
2023-03-06T02:02:51.877Z,515.00
2023-03-06T02:03:51.900Z,518.00
2023-03-06T02:04:51.866Z,515.00
2023-03-06T02:05:51.887Z,514.00
2023-03-06T02:06:51.886Z,515.00
2023-03-06T02:07:51.905Z,516.00
2023-03-06T02:08:51.907Z,516.00
2023-03-06T02:09:50.894Z,519.00
2023-03-06T02:10:51.896Z,520.00
2023-03-06T02:11:52.008Z,513.00
2023-03-06T02:12:51.901Z,513.00
2023-03-06T02:13:51.908Z,517.00
2023-03-06T02:14:51.906Z,511.00
2023-03-06T02:15:50.890Z,511.00
2023-03-06T02:16:51.969Z,512.00
2023-03-06T02:17:51.895Z,518.00
2023-03-06T02:18:51.907Z,515.00
2023-03-06T02:19:51.898Z,509.00
2023-03-06T02:20:51.891Z,519.00
2023-03-06T02:21:51.885Z,516.00
2023-03-06T02:22:51.884Z,514.00
2023-03-06T02:23:51.882Z,518.00
2023-03-06T02:24:51.885Z,515.00
2023-03-06T02:25:51.879Z,513.00
2023-03-06T02:26:50.869Z,515.00
2023-03-06T02:27:51.883Z,508.00
2023-03-06T02:28:52.811Z,511.00
2023-03-06T02:29:51.856Z,509.00
2023-03-06T02:30:51.946Z,514.00
2023-03-06T02:31:51.845Z,504.00
2023-03-06T02:32:51.881Z,510.00
2023-03-06T02:33:50.839Z,517.00
2023-03-06T02:34:51.854Z,509.00
2023-03-06T02:35:51.869Z,517.00
2023-03-06T02:36:50.844Z,513.00
2023-03-06T02:37:52.087Z,514.00
2023-03-06T02:38:50.832Z,512.00
2023-03-06T02:39:51.837Z,511.00
2023-03-06T02:40:51.839Z,511.00
2023-03-06T02:41:50.840Z,512.00
2023-03-06T02:42:51.830Z,513.00
2023-03-06T02:43:51.843Z,512.00
2023-03-06T02:44:51.861Z,513.00
2023-03-06T02:45:51.891Z,513.00
2023-03-06T02:46:51.805Z,507.00
2023-03-06T02:47:51.809Z,511.00
2023-03-06T02:48:51.820Z,509.00
2023-03-06T02:49:51.858Z,513.00
2023-03-06T02:50:51.836Z,512.00
2023-03-06T02:51:51.824Z,510.00
2023-03-06T02:52:50.807Z,512.00
2023-03-06T02:53:51.811Z,507.00
2023-03-06T02:54:51.801Z,513.00
2023-03-06T02:55:51.807Z,513.00
2023-03-06T02:56:51.877Z,513.00
2023-03-06T02:57:51.785Z,516.00
2023-03-06T02:58:51.791Z,512.00
2023-03-06T02:59:50.822Z,510.00
2023-03-06T03:00:51.771Z,512.00
2023-03-06T03:01:51.850Z,511.00
2023-03-06T03:02:50.761Z,513.00
2023-03-06T03:03:51.773Z,512.00
2023-03-06T03:04:51.862Z,504.00
2023-03-06T03:05:51.770Z,509.00
2023-03-06T03:06:51.765Z,511.00
2023-03-06T03:07:51.757Z,509.00
2023-03-06T03:08:51.791Z,509.00
2023-03-06T03:09:51.770Z,510.00
2023-03-06T03:10:50.753Z,510.00
2023-03-06T03:11:51.736Z,510.00
2023-03-06T03:12:51.738Z,512.00
2023-03-06T03:13:51.730Z,512.00
2023-03-06T03:14:50.725Z,508.00
2023-03-06T03:15:51.779Z,511.00
2023-03-06T03:16:51.730Z,511.00
2023-03-06T03:17:50.722Z,514.00
2023-03-06T03:18:50.707Z,511.00
2023-03-06T03:19:51.720Z,510.00
2023-03-06T03:20:50.722Z,509.00
2023-03-06T03:21:50.704Z,507.00
2023-03-06T03:22:51.702Z,510.00
2023-03-06T03:23:50.722Z,512.00
2023-03-06T03:24:51.781Z,509.00
2023-03-06T03:25:51.710Z,507.00
2023-03-06T03:26:51.696Z,510.00
2023-03-06T03:27:51.712Z,510.00
2023-03-06T03:28:51.709Z,512.00
2023-03-06T03:29:51.689Z,510.00
2023-03-06T03:30:51.737Z,504.00
2023-03-06T03:31:51.721Z,508.00
2023-03-06T03:32:51.689Z,516.00
2023-03-06T03:33:51.704Z,506.00
2023-03-06T03:34:50.681Z,512.00
2023-03-06T03:35:51.747Z,506.00
2023-03-06T03:36:51.674Z,512.00
2023-03-06T03:37:51.668Z,512.00
2023-03-06T03:38:51.674Z,505.00
2023-03-06T03:39:51.684Z,505.00
2023-03-06T03:40:51.676Z,511.00
2023-03-06T03:41:51.668Z,508.00
2023-03-06T03:42:51.661Z,509.00
2023-03-06T03:43:51.648Z,509.00
2023-03-06T03:44:51.652Z,511.00
2023-03-06T03:45:51.653Z,504.00
2023-03-06T03:46:50.746Z,503.00
2023-03-06T03:47:52.305Z,509.00
2023-03-06T03:48:51.664Z,512.00
2023-03-06T03:49:51.643Z,507.00
2023-03-06T03:50:50.665Z,508.00
2023-03-06T03:51:51.673Z,503.00
2023-03-06T03:52:51.659Z,503.00
2023-03-06T03:53:51.666Z,505.00
2023-03-06T03:54:51.667Z,503.00
2023-03-06T03:55:51.689Z,507.00
2023-03-06T03:56:51.682Z,509.00
2023-03-06T03:57:51.675Z,506.00
2023-03-06T03:58:50.669Z,507.00
2023-03-06T03:59:51.680Z,508.00
2023-03-06T04:00:51.695Z,505.00
2023-03-06T04:01:51.729Z,511.00
2023-03-06T04:02:51.679Z,506.00
2023-03-06T04:03:51.695Z,509.00
2023-03-06T04:04:51.772Z,508.00
2023-03-06T04:05:51.691Z,504.00
2023-03-06T04:06:51.684Z,510.00
2023-03-06T04:07:51.702Z,506.00
2023-03-06T04:08:51.717Z,508.00
2023-03-06T04:09:51.729Z,508.00
2023-03-06T04:10:51.765Z,507.00
2023-03-06T04:11:51.745Z,507.00
2023-03-06T04:12:51.749Z,509.00
2023-03-06T04:13:51.762Z,505.00
2023-03-06T04:14:51.779Z,506.00
2023-03-06T04:15:51.865Z,511.00
2023-03-06T04:16:51.790Z,507.00
2023-03-06T04:17:51.776Z,505.00
2023-03-06T04:18:51.788Z,501.00
2023-03-06T04:19:51.831Z,509.00
2023-03-06T04:20:51.818Z,506.00
2023-03-06T04:21:51.804Z,505.00
2023-03-06T04:22:50.810Z,504.00
2023-03-06T04:23:51.809Z,505.00
2023-03-06T04:24:51.837Z,503.00
2023-03-06T04:25:51.845Z,506.00
2023-03-06T04:26:51.847Z,503.00
2023-03-06T04:27:51.854Z,506.00
2023-03-06T04:28:51.833Z,507.00
2023-03-06T04:29:51.846Z,504.00
2023-03-06T04:30:51.894Z,504.00
2023-03-06T04:31:51.910Z,508.00
2023-03-06T04:32:51.927Z,507.00
2023-03-06T04:33:51.959Z,508.00
2023-03-06T04:34:51.967Z,500.00
2023-03-06T04:35:52.100Z,504.00
2023-03-06T04:36:50.963Z,504.00
2023-03-06T04:37:51.981Z,503.00
2023-03-06T04:38:52.061Z,500.00
2023-03-06T04:39:51.026Z,506.00
2023-03-06T04:40:52.044Z,507.00
2023-03-06T04:41:51.076Z,506.00
2023-03-06T04:42:51.104Z,512.00
2023-03-06T04:43:51.108Z,509.00
2023-03-06T04:44:52.090Z,508.00
2023-03-06T04:45:52.209Z,507.00
2023-03-06T04:46:52.097Z,506.00
2023-03-06T04:47:52.099Z,507.00
2023-03-06T04:48:52.115Z,505.00
2023-03-06T04:49:52.150Z,505.00
2023-03-06T04:50:51.167Z,508.00
2023-03-06T04:51:52.207Z,503.00
2023-03-06T04:52:52.194Z,506.00
2023-03-06T04:53:52.213Z,504.00
2023-03-06T04:54:52.244Z,509.00
2023-03-06T04:55:52.265Z,505.00
2023-03-06T04:56:51.279Z,502.00
2023-03-06T04:57:52.305Z,511.00
2023-03-06T04:58:52.304Z,506.00
2023-03-06T04:59:52.306Z,505.00
2023-03-06T05:00:52.384Z,512.00
2023-03-06T05:01:52.409Z,506.00
2023-03-06T05:02:52.371Z,504.00
2023-03-06T05:03:52.388Z,508.00
2023-03-06T05:04:51.423Z,505.00
2023-03-06T05:05:52.406Z,501.00
2023-03-06T05:06:52.422Z,508.00
2023-03-06T05:07:52.470Z,501.00
2023-03-06T05:08:51.465Z,507.00
2023-03-06T05:09:52.494Z,506.00
2023-03-06T05:10:52.511Z,506.00
2023-03-06T05:11:51.555Z,505.00
2023-03-06T05:12:51.603Z,500.00
2023-03-06T05:13:52.592Z,509.00
2023-03-06T05:14:52.624Z,505.00
2023-03-06T05:15:52.669Z,508.00
2023-03-06T05:16:52.690Z,501.00
2023-03-06T05:17:52.784Z,505.00
2023-03-06T05:18:53.422Z,502.00
2023-03-06T05:19:52.764Z,509.00
2023-03-06T05:20:52.776Z,506.00
2023-03-06T05:21:51.814Z,508.00
2023-03-06T05:22:52.818Z,509.00
2023-03-06T05:23:52.921Z,506.00
2023-03-06T05:24:52.853Z,504.00
2023-03-06T05:25:52.897Z,503.00
2023-03-06T05:26:52.914Z,502.00
2023-03-06T05:27:52.935Z,505.00
2023-03-06T05:28:52.948Z,505.00
2023-03-06T05:29:52.983Z,509.00
2023-03-06T05:30:53.032Z,506.00
2023-03-06T05:31:53.164Z,505.00
2023-03-06T05:32:52.121Z,506.00
2023-03-06T05:33:53.094Z,509.00
2023-03-06T05:34:53.185Z,507.00
2023-03-06T05:35:53.177Z,506.00
2023-03-06T05:36:53.198Z,502.00
2023-03-06T05:37:53.220Z,501.00
2023-03-06T05:38:53.253Z,506.00
2023-03-06T05:39:53.314Z,507.00
2023-03-06T05:40:53.324Z,505.00
2023-03-06T05:41:53.362Z,508.00
2023-03-06T05:42:53.385Z,512.00
2023-03-06T05:43:53.418Z,511.00
2023-03-06T05:44:53.448Z,507.00
2023-03-06T05:45:53.503Z,515.00
2023-03-06T05:46:53.647Z,510.00
2023-03-06T05:47:53.544Z,509.00
2023-03-06T05:48:53.564Z,505.00
2023-03-06T05:49:53.609Z,506.00
2023-03-06T05:50:53.657Z,506.00
2023-03-06T05:51:52.691Z,510.00
2023-03-06T05:52:53.756Z,507.00
2023-03-06T05:53:53.815Z,503.00
2023-03-06T05:54:53.832Z,508.00
2023-03-06T05:55:53.893Z,506.00
2023-03-06T05:56:53.986Z,506.00
2023-03-06T05:57:53.944Z,505.00
2023-03-06T05:58:53.973Z,507.00
2023-03-06T05:59:54.016Z,503.00
2023-03-06T06:00:54.052Z,504.00
2023-03-06T06:01:54.073Z,509.00
2023-03-06T06:02:54.105Z,507.00
2023-03-06T06:03:54.277Z,505.00
2023-03-06T06:04:53.186Z,504.00
2023-03-06T06:05:54.209Z,504.00
2023-03-06T06:06:54.245Z,505.00
2023-03-06T06:07:54.301Z,510.00
2023-03-06T06:08:54.349Z,507.00
2023-03-06T06:09:54.376Z,507.00
2023-03-06T06:10:54.440Z,506.00
2023-03-06T06:11:54.493Z,503.00
2023-03-06T06:12:54.492Z,505.00
2023-03-06T06:13:54.514Z,506.00
2023-03-06T06:14:54.565Z,504.00
2023-03-06T06:15:54.624Z,508.00
2023-03-06T06:16:53.679Z,509.00
2023-03-06T06:17:54.688Z,505.00
2023-03-06T06:18:54.729Z,507.00
2023-03-06T06:19:54.788Z,513.00
2023-03-06T06:20:56.033Z,511.00
2023-03-06T06:21:54.879Z,505.00
2023-03-06T06:22:54.932Z,514.00
2023-03-06T06:23:54.945Z,509.00
2023-03-06T06:24:54.007Z,506.00
2023-03-06T06:25:55.012Z,508.00
2023-03-06T06:26:55.032Z,510.00
2023-03-06T06:27:55.408Z,515.00
2023-03-06T06:28:55.102Z,503.00
2023-03-06T06:29:55.154Z,517.00
2023-03-06T06:30:55.205Z,517.00
2023-03-06T06:31:55.220Z,516.00
2023-03-06T06:32:54.288Z,523.00
2023-03-06T06:33:55.317Z,527.00
2023-03-06T06:34:55.332Z,535.00
2023-03-06T06:35:55.436Z,538.00
2023-03-06T06:36:54.456Z,538.00
2023-03-06T06:37:55.459Z,539.00
2023-03-06T06:38:55.551Z,539.00
2023-03-06T06:39:55.568Z,549.00
2023-03-06T06:41:29.167Z,549.00
2023-03-06T06:42:14.575Z,550.00
2023-03-06T06:42:55.641Z,551.00
2023-03-06T06:43:57.104Z,554.00
2023-03-06T06:44:55.647Z,551.00
2023-03-06T06:46:09.169Z,554.00
2023-03-06T06:47:55.600Z,552.00
2023-03-06T06:48:54.595Z,559.00
2023-03-06T06:49:54.696Z,572.00
2023-03-06T06:50:54.598Z,591.00
2023-03-06T06:51:55.556Z,628.00
2023-03-06T06:52:55.548Z,637.00
2023-03-06T06:53:55.533Z,643.00
2023-03-06T06:54:55.535Z,654.00
2023-03-06T06:55:55.513Z,662.00
2023-03-06T06:56:55.544Z,680.00
2023-03-06T06:57:55.522Z,700.00
2023-03-06T06:59:01.343Z,695.00
2023-03-06T06:59:55.532Z,697.00
2023-03-06T07:00:55.483Z,704.00
2023-03-06T07:01:55.516Z,713.00
2023-03-06T07:02:55.885Z,734.00
2023-03-06T07:03:55.516Z,770.00
2023-03-06T07:05:04.135Z,783.00
2023-03-06T07:05:55.455Z,785.00
2023-03-06T07:06:54.438Z,792.00
2023-03-06T07:07:55.469Z,800.00
2023-03-06T07:08:56.645Z,811.00
2023-03-06T07:09:55.432Z,785.00
2023-03-06T07:10:55.447Z,796.00
2023-03-06T07:11:55.424Z,817.00
2023-03-06T07:12:55.436Z,841.00
2023-03-06T07:13:55.407Z,855.00
2023-03-06T07:14:55.401Z,862.00
2023-03-06T07:15:55.415Z,860.00
2023-03-06T07:16:55.376Z,872.00
2023-03-06T07:17:55.387Z,876.00
2023-03-06T07:18:54.354Z,907.00
2023-03-06T07:19:55.384Z,925.00
2023-03-06T07:20:55.357Z,954.00
2023-03-06T07:21:54.383Z,954.00
2023-03-06T07:22:54.355Z,955.00
2023-03-06T07:23:55.318Z,980.00
2023-03-06T07:24:55.334Z,992.00
2023-03-06T07:25:55.316Z,1005.00
2023-03-06T07:26:55.392Z,1008.00
2023-03-06T07:27:55.473Z,1021.00
2023-03-06T07:28:55.359Z,1040.00
2023-03-06T07:29:55.279Z,1054.00
2023-03-06T07:30:55.308Z,1063.00
2023-03-06T07:31:55.369Z,1064.00
2023-03-06T07:32:55.326Z,1080.00
2023-03-06T07:33:55.246Z,1099.00
2023-03-06T07:35:12.920Z,1093.00
2023-03-06T07:35:55.286Z,1096.00
2023-03-06T07:36:55.227Z,1102.00
2023-03-06T07:37:55.236Z,1114.00
2023-03-06T07:38:55.323Z,1121.00
2023-03-06T07:39:55.219Z,1147.00
2023-03-06T07:40:27.473Z,500.00
2023-03-06T07:40:55.230Z,1150.00
2023-03-06T07:41:55.182Z,1154.00
2023-03-06T07:42:57.691Z,1158.00
2023-03-06T07:43:55.175Z,1160.00
2023-03-06T07:44:55.176Z,1168.00
2023-03-06T07:45:55.188Z,1180.00
2023-03-06T07:46:54.245Z,1190.00
2023-03-06T07:47:55.171Z,1214.00
2023-03-06T07:48:55.164Z,1218.00
2023-03-06T07:49:55.185Z,1231.00
2023-03-06T07:50:55.151Z,1232.00
2023-03-06T07:51:41.598Z,500.00
2023-03-06T07:51:55.118Z,1241.00
2023-03-06T07:52:55.152Z,1385.00
2023-03-06T07:53:55.444Z,1939.00
2023-03-06T07:54:55.136Z,1643.00
2023-03-06T07:55:55.118Z,1416.00
2023-03-06T07:56:55.093Z,1423.00
2023-03-06T07:57:54.085Z,1396.00
2023-03-06T07:58:05.872Z,500.00
2023-03-06T07:58:57.063Z,1341.00
2023-03-06T07:59:55.086Z,1355.00
2023-03-06T08:00:55.854Z,1366.00
2023-03-06T08:01:55.081Z,1379.00
2023-03-06T08:02:55.149Z,1358.00
2023-03-06T08:03:55.138Z,1358.00
2023-03-06T08:04:55.028Z,1361.00
2023-03-06T08:05:54.051Z,1366.00
2023-03-06T08:06:55.011Z,1367.00
2023-03-06T08:07:55.014Z,1380.00
2023-03-06T08:08:55.021Z,1393.00
2023-03-06T08:09:53.997Z,1390.00
2023-03-06T08:10:54.985Z,1472.00
2023-03-06T08:11:54.974Z,1774.00
2023-03-06T08:12:54.959Z,1994.00
2023-03-06T08:13:55.083Z,1961.00
2023-03-06T08:14:54.972Z,1959.00
2023-03-06T08:15:55.025Z,1907.00
2023-03-06T08:16:55.036Z,1889.00
2023-03-06T08:17:54.090Z,1937.00
2023-03-06T08:18:50.080Z,500.00
2023-03-06T08:19:55.177Z,1941.00
2023-03-06T08:20:00.298Z,500.00
2023-03-06T08:20:55.177Z,1901.00
2023-03-06T08:21:55.191Z,1913.00
2023-03-06T08:22:55.239Z,1900.00
2023-03-06T08:23:32.776Z,500.00
2023-03-06T08:23:55.309Z,1934.00
2023-03-06T08:24:55.276Z,1922.00
2023-03-06T08:25:55.311Z,1897.00
2023-03-06T08:26:55.315Z,1915.00
2023-03-06T08:27:55.354Z,1895.00
2023-03-06T08:28:55.411Z,1891.00
2023-03-06T08:29:54.403Z,1903.00
2023-03-06T08:30:55.427Z,1881.00
2023-03-06T08:31:55.446Z,1903.00
2023-03-06T08:32:55.509Z,1914.00
2023-03-06T08:33:55.494Z,1903.00
2023-03-06T08:34:55.482Z,1906.00
2023-03-06T08:35:54.585Z,1898.00
2023-03-06T08:36:54.511Z,1898.00
2023-03-06T08:37:55.522Z,1883.00
2023-03-06T08:38:55.561Z,1881.00
2023-03-06T08:39:55.553Z,1891.00
2023-03-06T08:40:55.554Z,1877.00
2023-03-06T08:41:54.553Z,1915.00
2023-03-06T08:42:55.615Z,1886.00
2023-03-06T08:43:54.599Z,1891.00
2023-03-06T08:44:54.619Z,1897.00
2023-03-06T08:45:55.618Z,1934.00
2023-03-06T08:46:54.607Z,1915.00
2023-03-06T08:47:54.606Z,1911.00
2023-03-06T08:48:55.902Z,2020.00
2023-03-06T08:49:55.606Z,2017.00
2023-03-06T08:50:55.698Z,2007.00
2023-03-06T08:51:55.591Z,1986.00
2023-03-06T08:52:54.622Z,2007.00
2023-03-06T08:53:55.660Z,1965.00
2023-03-06T08:54:19.944Z,408.00
2023-03-06T08:54:55.637Z,1989.00
2023-03-06T08:55:55.662Z,1975.00
2023-03-06T08:56:55.662Z,1988.00
2023-03-06T08:57:54.429Z,500.00
2023-03-06T08:58:55.230Z,500.00
2023-03-06T08:59:55.093Z,500.00
2023-03-06T09:00:54.842Z,500.00
2023-03-06T09:01:54.740Z,2015.00
2023-03-06T09:02:55.657Z,1999.00
2023-03-06T09:03:54.649Z,2012.00
2023-03-06T09:04:55.662Z,2027.00
2023-03-06T09:05:54.674Z,2017.00
2023-03-06T09:06:55.712Z,2000.00
2023-03-06T09:07:54.680Z,2010.00
2023-03-06T09:08:32.948Z,500.00
2023-03-06T09:08:55.685Z,2003.00
2023-03-06T09:09:35.674Z,500.00
2023-03-06T09:09:55.689Z,2007.00
2023-03-06T09:10:55.716Z,2008.00
2023-03-06T09:11:52.447Z,500.00
2023-03-06T09:12:55.024Z,500.00
2023-03-06T09:13:53.732Z,500.00
2023-03-06T09:14:54.525Z,500.00
2023-03-06T09:15:55.745Z,2029.00
2023-03-06T09:16:55.763Z,2035.00
2023-03-06T09:17:55.725Z,2029.00
2023-03-06T09:18:55.749Z,2037.00
2023-03-06T09:19:55.727Z,2039.00
2023-03-06T09:20:31.571Z,500.00
2023-03-06T09:20:55.741Z,2061.00
2023-03-06T09:21:32.549Z,500.00
2023-03-06T09:21:54.768Z,2087.00
2023-03-06T09:22:31.643Z,500.00
2023-03-06T09:22:55.775Z,2065.00
2023-03-06T09:23:32.690Z,500.00
2023-03-06T09:23:55.812Z,2065.00
2023-03-06T09:24:31.353Z,500.00
2023-03-06T09:24:54.799Z,2089.00
2023-03-06T09:25:32.350Z,492.00
2023-03-06T09:25:55.826Z,2069.00
2023-03-06T09:26:45.085Z,502.00
2023-03-06T09:26:55.822Z,2091.00
2023-03-06T09:27:32.288Z,502.00
2023-03-06T09:28:10.516Z,2092.00
2023-03-06T09:28:31.734Z,502.00
2023-03-06T09:28:55.856Z,2093.00
2023-03-06T09:29:32.363Z,487.00
2023-03-06T09:29:55.841Z,2097.00
2023-03-06T09:30:32.726Z,473.00
2023-03-06T09:30:55.899Z,2098.00
2023-03-06T09:31:55.840Z,2095.00
2023-03-06T09:32:51.065Z,500.00
2023-03-06T09:33:51.988Z,500.00
2023-03-06T09:34:53.058Z,500.00
2023-03-06T09:35:51.793Z,500.00
2023-03-06T09:36:56.943Z,500.00
2023-03-06T09:37:51.878Z,500.00
2023-03-06T09:38:51.704Z,500.00
2023-03-06T09:39:51.684Z,500.00
2023-03-06T09:40:50.657Z,500.00
2023-03-06T09:41:51.700Z,500.00
2023-03-06T09:41:55.762Z,2231.00
2023-03-06T09:42:51.647Z,521.00
2023-03-06T09:43:51.723Z,520.00
2023-03-06T09:44:51.674Z,522.00
2023-03-06T09:45:51.720Z,500.00
2023-03-06T09:46:51.612Z,506.00
2023-03-06T09:47:51.622Z,514.00
2023-03-06T09:48:51.607Z,505.00
2023-03-06T09:49:51.622Z,500.00
2023-03-06T09:50:51.604Z,524.00
2023-03-06T09:51:51.595Z,576.00
2023-03-06T09:52:51.617Z,554.00
2023-03-06T09:53:50.708Z,522.00
2023-03-06T09:54:51.976Z,500.00
2023-03-06T09:55:51.618Z,517.00
2023-03-06T09:56:50.607Z,568.00
2023-03-06T09:57:54.001Z,587.00
2023-03-06T09:58:51.737Z,588.00
2023-03-06T09:59:51.667Z,589.00
2023-03-06T10:00:51.616Z,602.00
2023-03-06T10:01:50.737Z,579.00
2023-03-06T10:02:51.162Z,606.00
2023-03-06T10:03:51.564Z,605.00
2023-03-06T10:04:51.547Z,560.00
2023-03-06T10:05:51.515Z,556.00
2023-03-06T10:06:50.599Z,545.00
2023-03-06T10:07:51.872Z,555.00
2023-03-06T10:08:51.611Z,543.00
2023-03-06T10:09:51.549Z,490.00
2023-03-06T10:10:51.475Z,499.00
2023-03-06T10:11:50.529Z,511.00
2023-03-06T10:12:51.543Z,506.00
2023-03-06T10:13:51.461Z,549.00
2023-03-06T10:14:50.487Z,500.00
2023-03-06T10:15:51.455Z,524.00
2023-03-06T10:16:50.531Z,557.00
2023-03-06T10:17:51.532Z,499.00
2023-03-06T10:18:51.474Z,526.00
2023-03-06T10:19:51.509Z,531.00
2023-03-06T10:20:51.440Z,524.00
2023-03-06T10:21:50.532Z,533.00
2023-03-06T10:23:00.864Z,549.00
2023-03-06T10:23:51.467Z,550.00
2023-03-06T10:24:50.414Z,566.00
2023-03-06T10:25:50.478Z,583.00
2023-03-06T10:26:51.605Z,558.00
2023-03-06T10:27:50.399Z,561.00
2023-03-06T10:28:51.415Z,564.00
2023-03-06T10:30:02.821Z,1594.00
2023-03-06T10:30:56.207Z,1596.00
2023-03-06T10:31:56.229Z,1601.00
2023-03-06T10:32:56.266Z,1610.00
2023-03-06T10:33:10.075Z,500.00
2023-03-06T10:33:56.167Z,1634.00
2023-03-06T10:34:10.021Z,500.00
2023-03-06T10:34:56.149Z,1651.00
2023-03-06T10:35:56.217Z,1635.00
2023-03-06T10:36:56.110Z,1630.00
2023-03-06T10:37:56.107Z,1670.00
2023-03-06T10:38:56.123Z,1675.00
2023-03-06T10:39:56.098Z,1679.00
2023-03-06T10:40:56.088Z,1686.00
2023-03-06T10:41:56.093Z,1693.00
2023-03-06T10:43:09.588Z,1698.00
2023-03-06T10:43:56.112Z,1700.00
2023-03-06T10:44:56.071Z,1703.00
2023-03-06T10:45:56.073Z,1716.00
2023-03-06T10:46:55.045Z,1767.00
2023-03-06T10:47:56.058Z,1793.00
2023-03-06T10:48:56.473Z,1770.00
2023-03-06T10:49:56.044Z,1825.00
2023-03-06T10:50:55.037Z,1803.00
2023-03-06T10:51:31.576Z,500.00
2023-03-06T10:51:56.058Z,1841.00
2023-03-06T10:52:55.000Z,1823.00
2023-03-06T10:53:56.005Z,1819.00
2023-03-06T10:54:55.002Z,1868.00
2023-03-06T10:55:03.733Z,500.00
2023-03-06T10:55:55.041Z,1849.00
2023-03-06T10:56:00.674Z,500.00
2023-03-06T10:56:56.014Z,1804.00
2023-03-06T10:57:56.035Z,1731.00
2023-03-06T10:58:34.662Z,500.00
2023-03-06T10:58:56.002Z,1695.00
2023-03-06T10:59:56.019Z,1661.00
2023-03-06T11:00:55.948Z,1545.00
2023-03-06T11:01:56.035Z,1456.00
2023-03-06T11:02:47.076Z,500.00
2023-03-06T11:03:55.944Z,1462.00
2023-03-06T11:04:55.965Z,1426.00
2023-03-06T11:05:54.926Z,1369.00
2023-03-06T11:06:55.922Z,1337.00
2023-03-06T11:07:55.911Z,1337.00
2023-03-06T11:08:55.942Z,1323.00
2023-03-06T11:09:56.017Z,1324.00
2023-03-06T11:10:31.343Z,500.00
2023-03-06T11:10:56.036Z,1315.00
2023-03-06T11:11:56.085Z,1312.00
2023-03-06T11:12:50.210Z,500.00
2023-03-06T11:13:50.742Z,500.00
2023-03-06T11:14:50.997Z,500.00
2023-03-06T11:15:56.415Z,1328.00
2023-03-06T11:16:02.487Z,500.00
2023-03-06T11:16:55.351Z,1316.00
2023-03-06T11:17:56.400Z,1329.00
2023-03-06T11:18:56.489Z,1325.00
2023-03-06T11:19:56.512Z,1340.00
2023-03-06T11:20:55.567Z,1347.00
2023-03-06T11:21:56.620Z,1357.00
2023-03-06T11:22:56.674Z,1368.00
2023-03-06T11:23:56.724Z,1374.00
2023-03-06T11:24:56.764Z,1368.00
2023-03-06T11:25:02.629Z,500.00
2023-03-06T11:25:56.975Z,1368.00
2023-03-06T11:26:56.857Z,1389.00
2023-03-06T11:27:08.706Z,500.00
2023-03-06T11:27:56.899Z,1393.00
2023-03-06T11:28:21.806Z,500.00
2023-03-06T11:28:56.995Z,1389.00
2023-03-06T11:29:56.032Z,1388.00
2023-03-06T11:30:57.014Z,1399.00
2023-03-06T11:31:41.000Z,500.00
2023-03-06T11:32:57.103Z,1404.00
2023-03-06T11:33:49.651Z,500.00
2023-03-06T11:34:57.174Z,1413.00
2023-03-06T11:35:57.237Z,1418.00
2023-03-06T11:36:07.147Z,500.00
2023-03-06T11:36:57.282Z,1427.00
2023-03-06T11:37:57.291Z,1430.00
2023-03-06T11:38:57.342Z,1476.00
2023-03-06T11:39:45.831Z,500.00
2023-03-06T11:40:47.004Z,500.00
2023-03-06T11:41:46.926Z,500.00
2023-03-06T11:42:46.714Z,500.00
2023-03-06T11:43:46.906Z,500.00
2023-03-06T11:44:56.639Z,1520.00
2023-03-06T11:45:57.735Z,1503.00
2023-03-06T11:46:05.440Z,500.00
2023-03-06T11:46:57.805Z,1510.00
2023-03-06T11:47:57.822Z,1458.00
2023-03-06T11:48:56.883Z,1376.00
2023-03-06T11:49:57.974Z,1382.00
2023-03-06T11:50:58.007Z,1351.00